sensor_id;sensor_type;location;lat;lon;timestamp;P1;durP1;ratioP1;P2;durP2;ratioP2
19189;SDS011;9727;50.200;19.038;2022-11-03T00:00:21;22.20;;;12.63;;
19189;SDS011;9727;50.200;19.038;2022-11-03T00:02:47;25.97;;;13.00;;
19189;SDS011;9727;50.200;19.038;2022-11-03T00:05:14;31.70;;;13.60;;
19189;SDS011;9727;50.200;19.038;2022-11-03T00:08:04;26.43;;;13.80;;
19189;SDS011;9727;50.200;19.038;2022-11-03T00:10:32;30.83;;;14.70;;
19189;SDS011;9727;50.200;19.038;2022-11-03T00:12:59;26.93;;;13.73;;
19189;SDS011;9727;50.200;19.038;2022-11-03T00:15:25;29.23;;;15.03;;
19189;SDS011;9727;50.200;19.038;2022-11-03T00:17:52;28.47;;;14.20;;
19189;SDS011;9727;50.200;19.038;2022-11-03T00:20:18;34.57;;;15.40;;
19189;SDS011;9727;50.200;19.038;2022-11-03T00:22:45;29.53;;;15.07;;
19189;SDS011;9727;50.200;19.038;2022-11-03T00:25:11;30.53;;;15.87;;
19189;SDS011;9727;50.200;19.038;2022-11-03T00:27:40;27.50;;;13.77;;
19189;SDS011;9727;50.200;19.038;2022-11-03T00:30:06;31.57;;;15.10;;
19189;SDS011;9727;50.200;19.038;2022-11-03T00:32:33;28.70;;;14.93;;
19189;SDS011;9727;50.200;19.038;2022-11-03T00:35:00;29.13;;;15.20;;
19189;SDS011;9727;50.200;19.038;2022-11-03T00:37:26;26.63;;;15.07;;
19189;SDS011;9727;50.200;19.038;2022-11-03T00:39:53;25.73;;;14.03;;
19189;SDS011;9727;50.200;19.038;2022-11-03T00:42:19;26.93;;;14.10;;
19189;SDS011;9727;50.200;19.038;2022-11-03T00:44:47;35.37;;;15.10;;
19189;SDS011;9727;50.200;19.038;2022-11-03T00:47:14;24.73;;;13.73;;
19189;SDS011;9727;50.200;19.038;2022-11-03T00:49:40;27.47;;;13.57;;
19189;SDS011;9727;50.200;19.038;2022-11-03T00:52:07;30.30;;;14.53;;
19189;SDS011;9727;50.200;19.038;2022-11-03T00:54:33;23.30;;;13.33;;
19189;SDS011;9727;50.200;19.038;2022-11-03T00:57:00;28.00;;;13.60;;
19189;SDS011;9727;50.200;19.038;2022-11-03T00:59:26;26.97;;;14.77;;
19189;SDS011;9727;50.200;19.038;2022-11-03T01:01:54;32.40;;;15.20;;
19189;SDS011;9727;50.200;19.038;2022-11-03T01:04:21;28.87;;;14.77;;
19189;SDS011;9727;50.200;19.038;2022-11-03T01:07:05;27.57;;;14.57;;
19189;SDS011;9727;50.200;19.038;2022-11-03T01:09:33;26.77;;;14.33;;
19189;SDS011;9727;50.200;19.038;2022-11-03T01:12:01;32.73;;;14.87;;
19189;SDS011;9727;50.200;19.038;2022-11-03T01:14:28;30.47;;;14.50;;
19189;SDS011;9727;50.200;19.038;2022-11-03T01:16:57;28.80;;;13.30;;
19189;SDS011;9727;50.200;19.038;2022-11-03T01:19:24;27.23;;;13.40;;
19189;SDS011;9727;50.200;19.038;2022-11-03T01:21:51;25.33;;;13.17;;
19189;SDS011;9727;50.200;19.038;2022-11-03T01:24:18;24.23;;;12.77;;
19189;SDS011;9727;50.200;19.038;2022-11-03T01:26:45;24.27;;;13.37;;
19189;SDS011;9727;50.200;19.038;2022-11-03T01:29:12;27.20;;;13.80;;
19189;SDS011;9727;50.200;19.038;2022-11-03T01:31:38;25.77;;;13.13;;
19189;SDS011;9727;50.200;19.038;2022-11-03T01:34:07;28.40;;;13.30;;
19189;SDS011;9727;50.200;19.038;2022-11-03T01:36:35;25.17;;;12.63;;
19189;SDS011;9727;50.200;19.038;2022-11-03T01:39:01;25.63;;;13.73;;
19189;SDS011;9727;50.200;19.038;2022-11-03T01:41:28;28.00;;;12.83;;
19189;SDS011;9727;50.200;19.038;2022-11-03T01:46:40;22.43;;;12.60;;
19189;SDS011;9727;50.200;19.038;2022-11-03T01:49:10;23.23;;;12.80;;
19189;SDS011;9727;50.200;19.038;2022-11-03T01:51:38;29.10;;;14.10;;
19189;SDS011;9727;50.200;19.038;2022-11-03T01:54:06;27.93;;;14.03;;
19189;SDS011;9727;50.200;19.038;2022-11-03T01:56:34;24.17;;;14.17;;
19189;SDS011;9727;50.200;19.038;2022-11-03T01:59:03;27.10;;;15.13;;
19189;SDS011;9727;50.200;19.038;2022-11-03T02:01:30;26.13;;;15.37;;
19189;SDS011;9727;50.200;19.038;2022-11-03T02:03:58;29.00;;;15.33;;
19189;SDS011;9727;50.200;19.038;2022-11-03T02:06:28;30.53;;;16.90;;
19189;SDS011;9727;50.200;19.038;2022-11-03T02:08:55;34.97;;;16.83;;
19189;SDS011;9727;50.200;19.038;2022-11-03T02:11:23;31.03;;;17.13;;
19189;SDS011;9727;50.200;19.038;2022-11-03T02:14:09;29.20;;;17.80;;
19189;SDS011;9727;50.200;19.038;2022-11-03T02:16:36;37.47;;;18.63;;
19189;SDS011;9727;50.200;19.038;2022-11-03T02:19:03;31.80;;;17.97;;
19189;SDS011;9727;50.200;19.038;2022-11-03T02:21:33;32.30;;;18.33;;
19189;SDS011;9727;50.200;19.038;2022-11-03T02:24:04;41.60;;;19.93;;
19189;SDS011;9727;50.200;19.038;2022-11-03T02:26:35;39.13;;;21.17;;
19189;SDS011;9727;50.200;19.038;2022-11-03T02:29:02;41.90;;;20.50;;
19189;SDS011;9727;50.200;19.038;2022-11-03T02:31:29;37.17;;;20.30;;
19189;SDS011;9727;50.200;19.038;2022-11-03T02:34:02;41.93;;;22.17;;
19189;SDS011;9727;50.200;19.038;2022-11-03T02:36:30;47.03;;;23.00;;
19189;SDS011;9727;50.200;19.038;2022-11-03T02:38:59;43.10;;;22.50;;
19189;SDS011;9727;50.200;19.038;2022-11-03T02:41:28;47.20;;;22.93;;
19189;SDS011;9727;50.200;19.038;2022-11-03T02:43:56;43.67;;;22.53;;
19189;SDS011;9727;50.200;19.038;2022-11-03T02:46:23;40.17;;;22.43;;
19189;SDS011;9727;50.200;19.038;2022-11-03T02:48:51;42.07;;;21.73;;
19189;SDS011;9727;50.200;19.038;2022-11-03T02:51:18;39.57;;;20.53;;
19189;SDS011;9727;50.200;19.038;2022-11-03T02:53:45;38.43;;;20.33;;
19189;SDS011;9727;50.200;19.038;2022-11-03T02:56:15;36.57;;;20.27;;
19189;SDS011;9727;50.200;19.038;2022-11-03T02:58:46;35.43;;;18.60;;
19189;SDS011;9727;50.200;19.038;2022-11-03T03:01:21;37.73;;;20.07;;
19189;SDS011;9727;50.200;19.038;2022-11-03T03:03:49;34.63;;;19.00;;
19189;SDS011;9727;50.200;19.038;2022-11-03T03:06:18;33.07;;;18.60;;
19189;SDS011;9727;50.200;19.038;2022-11-03T03:08:46;31.40;;;17.77;;
19189;SDS011;9727;50.200;19.038;2022-11-03T03:11:14;32.23;;;17.67;;
19189;SDS011;9727;50.200;19.038;2022-11-03T03:13:41;33.63;;;18.53;;
19189;SDS011;9727;50.200;19.038;2022-11-03T03:16:22;35.13;;;19.03;;
19189;SDS011;9727;50.200;19.038;2022-11-03T03:18:55;36.43;;;19.27;;
19189;SDS011;9727;50.200;19.038;2022-11-03T03:21:25;33.20;;;18.37;;
19189;SDS011;9727;50.200;19.038;2022-11-03T03:23:56;32.23;;;18.80;;
19189;SDS011;9727;50.200;19.038;2022-11-03T03:26:24;35.37;;;17.73;;
19189;SDS011;9727;50.200;19.038;2022-11-03T03:28:52;32.33;;;18.07;;
19189;SDS011;9727;50.200;19.038;2022-11-03T03:31:21;31.00;;;17.33;;
19189;SDS011;9727;50.200;19.038;2022-11-03T03:33:49;28.87;;;16.97;;
19189;SDS011;9727;50.200;19.038;2022-11-03T03:36:17;34.40;;;17.47;;
19189;SDS011;9727;50.200;19.038;2022-11-03T03:38:46;31.20;;;16.60;;
19189;SDS011;9727;50.200;19.038;2022-11-03T03:41:14;30.40;;;16.83;;
19189;SDS011;9727;50.200;19.038;2022-11-03T03:43:46;33.83;;;17.60;;
19189;SDS011;9727;50.200;19.038;2022-11-03T03:46:13;37.33;;;18.70;;
19189;SDS011;9727;50.200;19.038;2022-11-03T03:48:42;32.90;;;19.57;;
19189;SDS011;9727;50.200;19.038;2022-11-03T03:51:09;41.67;;;21.53;;
19189;SDS011;9727;50.200;19.038;2022-11-03T03:53:48;42.40;;;22.13;;
19189;SDS011;9727;50.200;19.038;2022-11-03T03:56:25;46.33;;;21.70;;
19189;SDS011;9727;50.200;19.038;2022-11-03T03:58:53;35.57;;;21.33;;
19189;SDS011;9727;50.200;19.038;2022-11-03T04:01:19;38.07;;;20.40;;
19189;SDS011;9727;50.200;19.038;2022-11-03T04:03:47;44.20;;;21.53;;
19189;SDS011;9727;50.200;19.038;2022-11-03T04:06:14;36.13;;;21.70;;
19189;SDS011;9727;50.200;19.038;2022-11-03T04:08:40;41.67;;;22.70;;
19189;SDS011;9727;50.200;19.038;2022-11-03T04:11:07;47.77;;;23.13;;
19189;SDS011;9727;50.200;19.038;2022-11-03T04:13:51;48.33;;;24.87;;
19189;SDS011;9727;50.200;19.038;2022-11-03T04:16:35;44.13;;;24.97;;
19189;SDS011;9727;50.200;19.038;2022-11-03T04:19:29;43.70;;;24.20;;
19189;SDS011;9727;50.200;19.038;2022-11-03T04:22:13;45.83;;;24.10;;
19189;SDS011;9727;50.200;19.038;2022-11-03T04:24:45;46.33;;;23.73;;
19189;SDS011;9727;50.200;19.038;2022-11-03T04:27:17;43.60;;;23.97;;
19189;SDS011;9727;50.200;19.038;2022-11-03T04:29:45;44.83;;;24.70;;
19189;SDS011;9727;50.200;19.038;2022-11-03T04:32:17;44.70;;;22.67;;
19189;SDS011;9727;50.200;19.038;2022-11-03T04:34:46;44.20;;;25.37;;
19189;SDS011;9727;50.200;19.038;2022-11-03T04:37:13;40.57;;;23.70;;
19189;SDS011;9727;50.200;19.038;2022-11-03T04:39:40;44.50;;;23.80;;
19189;SDS011;9727;50.200;19.038;2022-11-03T04:42:10;43.87;;;23.27;;
19189;SDS011;9727;50.200;19.038;2022-11-03T04:44:38;43.80;;;22.83;;
19189;SDS011;9727;50.200;19.038;2022-11-03T04:47:07;46.33;;;22.80;;
19189;SDS011;9727;50.200;19.038;2022-11-03T04:49:35;41.70;;;22.40;;
19189;SDS011;9727;50.200;19.038;2022-11-03T04:52:04;46.80;;;23.40;;
19189;SDS011;9727;50.200;19.038;2022-11-03T04:54:31;47.07;;;22.47;;
19189;SDS011;9727;50.200;19.038;2022-11-03T04:56:57;39.33;;;22.20;;
19189;SDS011;9727;50.200;19.038;2022-11-03T04:59:24;41.87;;;22.43;;
19189;SDS011;9727;50.200;19.038;2022-11-03T05:01:51;40.13;;;21.80;;
19189;SDS011;9727;50.200;19.038;2022-11-03T05:04:18;42.60;;;22.87;;
19189;SDS011;9727;50.200;19.038;2022-11-03T05:06:46;43.00;;;22.60;;
19189;SDS011;9727;50.200;19.038;2022-11-03T05:09:15;41.10;;;22.00;;
19189;SDS011;9727;50.200;19.038;2022-11-03T05:11:44;39.20;;;23.10;;
19189;SDS011;9727;50.200;19.038;2022-11-03T05:14:14;41.93;;;22.13;;
19189;SDS011;9727;50.200;19.038;2022-11-03T05:16:42;42.13;;;22.30;;
19189;SDS011;9727;50.200;19.038;2022-11-03T05:19:11;39.77;;;21.03;;
19189;SDS011;9727;50.200;19.038;2022-11-03T05:21:38;41.03;;;21.43;;
19189;SDS011;9727;50.200;19.038;2022-11-03T05:24:08;37.27;;;20.47;;
19189;SDS011;9727;50.200;19.038;2022-11-03T05:26:37;40.37;;;20.23;;
19189;SDS011;9727;50.200;19.038;2022-11-03T05:29:08;35.17;;;20.10;;
19189;SDS011;9727;50.200;19.038;2022-11-03T05:31:36;35.20;;;20.17;;
19189;SDS011;9727;50.200;19.038;2022-11-03T05:34:09;35.83;;;19.87;;
19189;SDS011;9727;50.200;19.038;2022-11-03T05:36:39;34.47;;;18.50;;
19189;SDS011;9727;50.200;19.038;2022-11-03T05:39:12;37.37;;;20.57;;
19189;SDS011;9727;50.200;19.038;2022-11-03T05:41:43;30.87;;;19.60;;
19189;SDS011;9727;50.200;19.038;2022-11-03T05:44:14;36.63;;;19.47;;
19189;SDS011;9727;50.200;19.038;2022-11-03T05:46:44;36.97;;;19.67;;
19189;SDS011;9727;50.200;19.038;2022-11-03T05:49:10;34.20;;;19.70;;
19189;SDS011;9727;50.200;19.038;2022-11-03T05:51:37;38.40;;;19.43;;
19189;SDS011;9727;50.200;19.038;2022-11-03T05:54:05;31.10;;;19.17;;
19189;SDS011;9727;50.200;19.038;2022-11-03T05:56:33;34.20;;;18.77;;
19189;SDS011;9727;50.200;19.038;2022-11-03T05:59:01;37.23;;;19.50;;
19189;SDS011;9727;50.200;19.038;2022-11-03T06:01:33;30.67;;;19.43;;
19189;SDS011;9727;50.200;19.038;2022-11-03T06:04:00;33.03;;;18.37;;
19189;SDS011;9727;50.200;19.038;2022-11-03T06:06:31;36.90;;;18.87;;
19189;SDS011;9727;50.200;19.038;2022-11-03T06:08:59;34.10;;;18.20;;
19189;SDS011;9727;50.200;19.038;2022-11-03T06:11:35;33.77;;;18.80;;
19189;SDS011;9727;50.200;19.038;2022-11-03T06:14:07;35.20;;;19.13;;
19189;SDS011;9727;50.200;19.038;2022-11-03T06:16:37;36.93;;;18.70;;
19189;SDS011;9727;50.200;19.038;2022-11-03T06:19:11;35.50;;;19.07;;
19189;SDS011;9727;50.200;19.038;2022-11-03T06:21:40;32.53;;;18.60;;
19189;SDS011;9727;50.200;19.038;2022-11-03T06:24:09;32.90;;;18.80;;
19189;SDS011;9727;50.200;19.038;2022-11-03T06:26:36;34.00;;;19.33;;
19189;SDS011;9727;50.200;19.038;2022-11-03T06:29:07;35.17;;;19.27;;
19189;SDS011;9727;50.200;19.038;2022-11-03T06:31:34;36.03;;;19.70;;
19189;SDS011;9727;50.200;19.038;2022-11-03T06:34:00;31.23;;;18.93;;
19189;SDS011;9727;50.200;19.038;2022-11-03T06:36:30;33.17;;;18.53;;
19189;SDS011;9727;50.200;19.038;2022-11-03T06:38:59;35.83;;;19.17;;
19189;SDS011;9727;50.200;19.038;2022-11-03T06:41:27;30.90;;;18.37;;
19189;SDS011;9727;50.200;19.038;2022-11-03T06:43:54;35.93;;;19.90;;
19189;SDS011;9727;50.200;19.038;2022-11-03T06:46:23;38.07;;;19.63;;
19189;SDS011;9727;50.200;19.038;2022-11-03T06:48:51;39.60;;;21.50;;
19189;SDS011;9727;50.200;19.038;2022-11-03T06:51:19;35.90;;;19.40;;
19189;SDS011;9727;50.200;19.038;2022-11-03T06:53:46;35.63;;;19.57;;
19189;SDS011;9727;50.200;19.038;2022-11-03T06:56:14;33.13;;;18.90;;
19189;SDS011;9727;50.200;19.038;2022-11-03T06:58:42;34.67;;;19.70;;
19189;SDS011;9727;50.200;19.038;2022-11-03T07:01:11;36.07;;;19.57;;
19189;SDS011;9727;50.200;19.038;2022-11-03T07:03:43;35.63;;;19.83;;
19189;SDS011;9727;50.200;19.038;2022-11-03T07:06:12;35.70;;;20.43;;
19189;SDS011;9727;50.200;19.038;2022-11-03T07:08:40;32.70;;;19.73;;
19189;SDS011;9727;50.200;19.038;2022-11-03T07:11:10;38.63;;;19.87;;
19189;SDS011;9727;50.200;19.038;2022-11-03T07:13:39;35.33;;;20.37;;
19189;SDS011;9727;50.200;19.038;2022-11-03T07:16:18;33.93;;;19.50;;
19189;SDS011;9727;50.200;19.038;2022-11-03T07:18:48;37.57;;;20.10;;
19189;SDS011;9727;50.200;19.038;2022-11-03T07:21:29;38.73;;;19.50;;
19189;SDS011;9727;50.200;19.038;2022-11-03T07:23:56;34.97;;;19.53;;
19189;SDS011;9727;50.200;19.038;2022-11-03T07:26:24;36.67;;;18.10;;
19189;SDS011;9727;50.200;19.038;2022-11-03T07:28:51;35.47;;;19.33;;
19189;SDS011;9727;50.200;19.038;2022-11-03T07:31:19;33.20;;;18.93;;
19189;SDS011;9727;50.200;19.038;2022-11-03T07:33:46;33.20;;;19.43;;
19189;SDS011;9727;50.200;19.038;2022-11-03T07:36:14;34.77;;;18.47;;
19189;SDS011;9727;50.200;19.038;2022-11-03T07:38:42;34.87;;;19.20;;
19189;SDS011;9727;50.200;19.038;2022-11-03T07:41:11;32.20;;;19.20;;
19189;SDS011;9727;50.200;19.038;2022-11-03T07:43:37;42.00;;;25.93;;
19189;SDS011;9727;50.200;19.038;2022-11-03T07:46:04;53.73;;;32.73;;
19189;SDS011;9727;50.200;19.038;2022-11-03T07:48:33;46.53;;;31.07;;
19189;SDS011;9727;50.200;19.038;2022-11-03T07:51:04;45.97;;;30.53;;
19189;SDS011;9727;50.200;19.038;2022-11-03T07:53:35;47.30;;;27.00;;
19189;SDS011;9727;50.200;19.038;2022-11-03T07:56:06;48.80;;;27.53;;
19189;SDS011;9727;50.200;19.038;2022-11-03T07:58:38;42.10;;;26.80;;
19189;SDS011;9727;50.200;19.038;2022-11-03T08:01:16;50.30;;;28.90;;
19189;SDS011;9727;50.200;19.038;2022-11-03T08:03:48;46.60;;;27.30;;
19189;SDS011;9727;50.200;19.038;2022-11-03T08:06:14;45.20;;;25.60;;
19189;SDS011;9727;50.200;19.038;2022-11-03T08:08:46;37.57;;;23.83;;
19189;SDS011;9727;50.200;19.038;2022-11-03T08:11:13;38.27;;;23.33;;
19189;SDS011;9727;50.200;19.038;2022-11-03T08:13:40;43.23;;;23.47;;
19189;SDS011;9727;50.200;19.038;2022-11-03T08:16:09;43.87;;;23.53;;
19189;SDS011;9727;50.200;19.038;2022-11-03T08:18:36;35.03;;;20.63;;
19189;SDS011;9727;50.200;19.038;2022-11-03T08:21:02;34.07;;;20.30;;
19189;SDS011;9727;50.200;19.038;2022-11-03T08:23:29;34.70;;;19.07;;
19189;SDS011;9727;50.200;19.038;2022-11-03T08:25:57;30.13;;;17.90;;
19189;SDS011;9727;50.200;19.038;2022-11-03T08:28:24;32.27;;;17.07;;
19189;SDS011;9727;50.200;19.038;2022-11-03T08:30:53;30.43;;;16.30;;
19189;SDS011;9727;50.200;19.038;2022-11-03T08:33:25;32.40;;;17.27;;
19189;SDS011;9727;50.200;19.038;2022-11-03T08:35:52;26.80;;;16.93;;
19189;SDS011;9727;50.200;19.038;2022-11-03T08:38:18;31.43;;;16.03;;
19189;SDS011;9727;50.200;19.038;2022-11-03T08:40:45;36.90;;;16.83;;
19189;SDS011;9727;50.200;19.038;2022-11-03T08:43:13;24.03;;;14.63;;
19189;SDS011;9727;50.200;19.038;2022-11-03T08:45:39;28.17;;;15.33;;
19189;SDS011;9727;50.200;19.038;2022-11-03T08:48:10;29.17;;;15.10;;
19189;SDS011;9727;50.200;19.038;2022-11-03T08:50:36;22.87;;;13.40;;
19189;SDS011;9727;50.200;19.038;2022-11-03T08:53:03;24.43;;;13.17;;
19189;SDS011;9727;50.200;19.038;2022-11-03T08:55:29;24.37;;;13.03;;
19189;SDS011;9727;50.200;19.038;2022-11-03T08:57:56;22.67;;;12.23;;
19189;SDS011;9727;50.200;19.038;2022-11-03T09:00:24;26.07;;;12.30;;
19189;SDS011;9727;50.200;19.038;2022-11-03T09:02:53;19.83;;;10.83;;
19189;SDS011;9727;50.200;19.038;2022-11-03T09:05:20;20.10;;;10.40;;
19189;SDS011;9727;50.200;19.038;2022-11-03T09:07:47;20.60;;;10.63;;
19189;SDS011;9727;50.200;19.038;2022-11-03T09:10:13;20.67;;;11.20;;
19189;SDS011;9727;50.200;19.038;2022-11-03T09:12:40;21.30;;;10.00;;
19189;SDS011;9727;50.200;19.038;2022-11-03T09:15:11;21.13;;;10.53;;
19189;SDS011;9727;50.200;19.038;2022-11-03T09:17:40;22.93;;;10.07;;
19189;SDS011;9727;50.200;19.038;2022-11-03T09:20:09;20.20;;;9.67;;
19189;SDS011;9727;50.200;19.038;2022-11-03T09:22:39;17.63;;;9.33;;
19189;SDS011;9727;50.200;19.038;2022-11-03T09:25:15;16.47;;;9.10;;
19189;SDS011;9727;50.200;19.038;2022-11-03T09:27:42;17.83;;;8.83;;
19189;SDS011;9727;50.200;19.038;2022-11-03T09:30:09;18.17;;;8.47;;
19189;SDS011;9727;50.200;19.038;2022-11-03T09:32:35;16.00;;;8.03;;
19189;SDS011;9727;50.200;19.038;2022-11-03T09:35:04;16.10;;;7.90;;
19189;SDS011;9727;50.200;19.038;2022-11-03T09:37:44;15.93;;;7.93;;
19189;SDS011;9727;50.200;19.038;2022-11-03T09:40:12;16.97;;;8.13;;
19189;SDS011;9727;50.200;19.038;2022-11-03T09:42:40;16.90;;;7.40;;
19189;SDS011;9727;50.200;19.038;2022-11-03T09:45:08;10.70;;;6.47;;
19189;SDS011;9727;50.200;19.038;2022-11-03T09:47:35;12.17;;;6.37;;
19189;SDS011;9727;50.200;19.038;2022-11-03T09:50:05;13.87;;;7.07;;
19189;SDS011;9727;50.200;19.038;2022-11-03T09:52:38;18.07;;;7.30;;
19189;SDS011;9727;50.200;19.038;2022-11-03T09:55:17;13.70;;;7.47;;
19189;SDS011;9727;50.200;19.038;2022-11-03T09:57:45;14.97;;;7.40;;
19189;SDS011;9727;50.200;19.038;2022-11-03T10:00:14;11.33;;;6.40;;
19189;SDS011;9727;50.200;19.038;2022-11-03T10:02:42;11.70;;;5.90;;
19189;SDS011;9727;50.200;19.038;2022-11-03T10:05:12;11.90;;;5.30;;
19189;SDS011;9727;50.200;19.038;2022-11-03T10:07:40;11.23;;;5.03;;
19189;SDS011;9727;50.200;19.038;2022-11-03T10:10:12;10.37;;;5.13;;
19189;SDS011;9727;50.200;19.038;2022-11-03T10:12:42;12.77;;;4.67;;
19189;SDS011;9727;50.200;19.038;2022-11-03T10:15:12;10.60;;;4.57;;
19189;SDS011;9727;50.200;19.038;2022-11-03T10:17:39;11.13;;;4.07;;
19189;SDS011;9727;50.200;19.038;2022-11-03T10:20:08;5.90;;;3.57;;
19189;SDS011;9727;50.200;19.038;2022-11-03T10:22:36;7.40;;;3.53;;
19189;SDS011;9727;50.200;19.038;2022-11-03T10:28:10;8.67;;;4.13;;
19189;SDS011;9727;50.200;19.038;2022-11-03T10:30:45;10.20;;;5.17;;
19189;SDS011;9727;50.200;19.038;2022-11-03T10:33:23;11.70;;;5.30;;
19189;SDS011;9727;50.200;19.038;2022-11-03T10:35:50;11.87;;;4.50;;
19189;SDS011;9727;50.200;19.038;2022-11-03T10:38:23;9.10;;;4.50;;
19189;SDS011;9727;50.200;19.038;2022-11-03T10:40:53;12.93;;;5.00;;
19189;SDS011;9727;50.200;19.038;2022-11-03T10:43:19;12.33;;;5.20;;
19189;SDS011;9727;50.200;19.038;2022-11-03T10:45:46;12.23;;;5.67;;
19189;SDS011;9727;50.200;19.038;2022-11-03T10:48:14;12.00;;;4.70;;
19189;SDS011;9727;50.200;19.038;2022-11-03T10:50:44;9.63;;;4.63;;
19189;SDS011;9727;50.200;19.038;2022-11-03T10:53:12;11.30;;;4.57;;
19189;SDS011;9727;50.200;19.038;2022-11-03T10:55:44;10.67;;;5.80;;
19189;SDS011;9727;50.200;19.038;2022-11-03T10:58:11;9.03;;;5.63;;
19189;SDS011;9727;50.200;19.038;2022-11-03T11:00:51;10.77;;;5.13;;
19189;SDS011;9727;50.200;19.038;2022-11-03T11:03:18;8.93;;;4.37;;
19189;SDS011;9727;50.200;19.038;2022-11-03T11:05:44;9.37;;;4.47;;
19189;SDS011;9727;50.200;19.038;2022-11-03T11:08:11;9.40;;;4.07;;
19189;SDS011;9727;50.200;19.038;2022-11-03T11:10:44;8.50;;;3.97;;
19189;SDS011;9727;50.200;19.038;2022-11-03T11:13:24;10.53;;;3.87;;
19189;SDS011;9727;50.200;19.038;2022-11-03T11:15:52;11.57;;;4.40;;
19189;SDS011;9727;50.200;19.038;2022-11-03T11:24:02;8.43;;;2.83;;
19189;SDS011;9727;50.200;19.038;2022-11-03T11:26:33;7.07;;;2.93;;
19189;SDS011;9727;50.200;19.038;2022-11-03T11:31:52;7.73;;;3.30;;
19189;SDS011;9727;50.200;19.038;2022-11-03T11:34:37;6.63;;;2.60;;
19189;SDS011;9727;50.200;19.038;2022-11-03T11:39:51;6.03;;;2.63;;
19189;SDS011;9727;50.200;19.038;2022-11-03T11:42:19;5.50;;;2.57;;
19189;SDS011;9727;50.200;19.038;2022-11-03T11:44:51;5.20;;;2.60;;
19189;SDS011;9727;50.200;19.038;2022-11-03T11:47:29;8.30;;;2.40;;
19189;SDS011;9727;50.200;19.038;2022-11-03T11:50:10;9.13;;;2.80;;
19189;SDS011;9727;50.200;19.038;2022-11-03T11:52:39;5.60;;;2.70;;
19189;SDS011;9727;50.200;19.038;2022-11-03T11:55:20;5.70;;;2.47;;
19189;SDS011;9727;50.200;19.038;2022-11-03T11:57:55;5.57;;;2.40;;
19189;SDS011;9727;50.200;19.038;2022-11-03T12:00:22;4.97;;;2.57;;
19189;SDS011;9727;50.200;19.038;2022-11-03T12:02:53;7.67;;;2.80;;
19189;SDS011;9727;50.200;19.038;2022-11-03T12:05:20;5.77;;;2.63;;
19189;SDS011;9727;50.200;19.038;2022-11-03T12:07:48;4.80;;;2.20;;
19189;SDS011;9727;50.200;19.038;2022-11-03T12:10:15;7.17;;;2.63;;
19189;SDS011;9727;50.200;19.038;2022-11-03T12:12:43;4.87;;;2.57;;
19189;SDS011;9727;50.200;19.038;2022-11-03T12:17:52;7.57;;;3.03;;
19189;SDS011;9727;50.200;19.038;2022-11-03T12:20:42;19.57;;;3.10;;
19189;SDS011;9727;50.200;19.038;2022-11-03T12:23:10;7.27;;;3.00;;
19189;SDS011;9727;50.200;19.038;2022-11-03T12:25:36;7.17;;;3.03;;
19189;SDS011;9727;50.200;19.038;2022-11-03T12:28:04;5.40;;;2.40;;
19189;SDS011;9727;50.200;19.038;2022-11-03T12:30:30;7.10;;;2.77;;
19189;SDS011;9727;50.200;19.038;2022-11-03T12:32:59;6.03;;;3.00;;
19189;SDS011;9727;50.200;19.038;2022-11-03T12:35:25;5.20;;;2.90;;
19189;SDS011;9727;50.200;19.038;2022-11-03T12:37:52;5.00;;;2.70;;
19189;SDS011;9727;50.200;19.038;2022-11-03T12:40:19;7.07;;;3.23;;
19189;SDS011;9727;50.200;19.038;2022-11-03T12:42:46;8.30;;;3.00;;
19189;SDS011;9727;50.200;19.038;2022-11-03T12:45:13;5.53;;;2.77;;
19189;SDS011;9727;50.200;19.038;2022-11-03T12:47:42;5.97;;;2.90;;
19189;SDS011;9727;50.200;19.038;2022-11-03T12:50:10;7.20;;;3.00;;
19189;SDS011;9727;50.200;19.038;2022-11-03T12:52:37;7.03;;;3.10;;
19189;SDS011;9727;50.200;19.038;2022-11-03T12:55:04;5.77;;;2.77;;
19189;SDS011;9727;50.200;19.038;2022-11-03T12:57:30;6.27;;;3.10;;
19189;SDS011;9727;50.200;19.038;2022-11-03T12:59:57;9.23;;;3.03;;
19189;SDS011;9727;50.200;19.038;2022-11-03T13:02:24;7.67;;;2.77;;
19189;SDS011;9727;50.200;19.038;2022-11-03T13:04:53;5.83;;;2.93;;
19189;SDS011;9727;50.200;19.038;2022-11-03T13:07:22;8.93;;;3.40;;
19189;SDS011;9727;50.200;19.038;2022-11-03T13:09:48;9.30;;;3.70;;
19189;SDS011;9727;50.200;19.038;2022-11-03T13:12:17;13.63;;;4.13;;
19189;SDS011;9727;50.200;19.038;2022-11-03T13:15:01;10.13;;;4.07;;
19189;SDS011;9727;50.200;19.038;2022-11-03T13:17:29;6.60;;;3.80;;
19189;SDS011;9727;50.200;19.038;2022-11-03T13:19:55;9.03;;;4.47;;
19189;SDS011;9727;50.200;19.038;2022-11-03T13:22:23;10.40;;;4.50;;
19189;SDS011;9727;50.200;19.038;2022-11-03T13:24:51;8.93;;;4.07;;
19189;SDS011;9727;50.200;19.038;2022-11-03T13:27:18;9.10;;;3.80;;
19189;SDS011;9727;50.200;19.038;2022-11-03T13:29:44;10.77;;;4.67;;
19189;SDS011;9727;50.200;19.038;2022-11-03T13:32:11;10.83;;;3.77;;
19189;SDS011;9727;50.200;19.038;2022-11-03T13:34:38;10.07;;;4.47;;
19189;SDS011;9727;50.200;19.038;2022-11-03T13:37:04;8.80;;;4.10;;
19189;SDS011;9727;50.200;19.038;2022-11-03T13:39:32;6.60;;;3.87;;
19189;SDS011;9727;50.200;19.038;2022-11-03T13:41:59;9.30;;;3.70;;
19189;SDS011;9727;50.200;19.038;2022-11-03T13:44:26;10.33;;;3.93;;
19189;SDS011;9727;50.200;19.038;2022-11-03T13:46:52;8.80;;;3.90;;
19189;SDS011;9727;50.200;19.038;2022-11-03T13:49:19;6.50;;;3.53;;
19189;SDS011;9727;50.200;19.038;2022-11-03T13:51:46;8.83;;;3.93;;
19189;SDS011;9727;50.200;19.038;2022-11-03T13:54:13;12.03;;;3.93;;
19189;SDS011;9727;50.200;19.038;2022-11-03T13:56:43;7.00;;;3.60;;
19189;SDS011;9727;50.200;19.038;2022-11-03T13:59:10;7.43;;;3.70;;
19189;SDS011;9727;50.200;19.038;2022-11-03T14:01:36;8.17;;;3.70;;
19189;SDS011;9727;50.200;19.038;2022-11-03T14:04:03;9.10;;;4.33;;
19189;SDS011;9727;50.200;19.038;2022-11-03T14:06:30;7.70;;;4.03;;
19189;SDS011;9727;50.200;19.038;2022-11-03T14:08:57;8.53;;;3.90;;
19189;SDS011;9727;50.200;19.038;2022-11-03T14:11:23;8.73;;;4.33;;
19189;SDS011;9727;50.200;19.038;2022-11-03T14:14:09;12.10;;;5.73;;
19189;SDS011;9727;50.200;19.038;2022-11-03T14:16:35;9.70;;;5.17;;
19189;SDS011;9727;50.200;19.038;2022-11-03T14:19:02;9.97;;;4.50;;
19189;SDS011;9727;50.200;19.038;2022-11-03T14:21:28;9.20;;;3.90;;
19189;SDS011;9727;50.200;19.038;2022-11-03T14:23:55;7.93;;;3.90;;
19189;SDS011;9727;50.200;19.038;2022-11-03T14:26:21;8.90;;;3.57;;
19189;SDS011;9727;50.200;19.038;2022-11-03T14:28:48;8.23;;;3.43;;
19189;SDS011;9727;50.200;19.038;2022-11-03T14:31:16;7.00;;;3.53;;
19189;SDS011;9727;50.200;19.038;2022-11-03T14:33:43;8.27;;;4.10;;
19189;SDS011;9727;50.200;19.038;2022-11-03T14:36:09;10.57;;;4.30;;
19189;SDS011;9727;50.200;19.038;2022-11-03T14:38:36;10.87;;;3.80;;
19189;SDS011;9727;50.200;19.038;2022-11-03T14:41:03;9.13;;;4.23;;
19189;SDS011;9727;50.200;19.038;2022-11-03T14:43:47;8.40;;;3.70;;
19189;SDS011;9727;50.200;19.038;2022-11-03T14:46:13;7.70;;;3.70;;
19189;SDS011;9727;50.200;19.038;2022-11-03T14:48:42;11.23;;;4.67;;
19189;SDS011;9727;50.200;19.038;2022-11-03T14:51:09;9.80;;;4.60;;
19189;SDS011;9727;50.200;19.038;2022-11-03T14:53:36;9.33;;;4.50;;
19189;SDS011;9727;50.200;19.038;2022-11-03T14:56:03;11.43;;;4.73;;
19189;SDS011;9727;50.200;19.038;2022-11-03T14:58:30;7.90;;;4.13;;